createdAt,value
2019-05-28T00:01:23.169Z,25.92
2019-05-28T00:03:55.991Z,20.88
2019-05-28T00:06:28.339Z,22.85
2019-05-28T00:09:00.721Z,19.45
2019-05-28T00:11:33.347Z,15.50
2019-05-28T00:14:05.864Z,12.40
2019-05-28T00:16:38.298Z,13.58
2019-05-28T00:19:10.571Z,12.30
2019-05-28T00:21:42.962Z,15.53
2019-05-28T00:24:16.441Z,17.30
2019-05-28T00:26:49.249Z,15.32
2019-05-28T00:29:21.809Z,14.43
2019-05-28T00:31:54.544Z,13.75
2019-05-28T00:34:27.587Z,14.93
2019-05-28T00:37:00.258Z,13.00
2019-05-28T00:39:33.414Z,15.70
2019-05-28T00:42:06.129Z,12.47
2019-05-28T00:44:38.503Z,13.90
2019-05-28T00:47:12.415Z,15.48
2019-05-28T00:49:44.651Z,14.93
2019-05-28T00:52:17.170Z,16.52
2019-05-28T00:54:49.781Z,15.65
2019-05-28T00:57:23.153Z,16.95
2019-05-28T00:59:56.255Z,18.07
2019-05-28T01:02:28.603Z,14.03
2019-05-28T01:05:01.462Z,17.55
2019-05-28T01:07:34.133Z,13.85
2019-05-28T01:10:09.434Z,15.68
2019-05-28T01:12:41.680Z,14.33
2019-05-28T01:15:14.687Z,14.20
2019-05-28T01:17:47.245Z,15.18
2019-05-28T01:20:19.826Z,13.10
2019-05-28T01:22:52.402Z,16.12
2019-05-28T01:25:24.950Z,14.33
2019-05-28T01:27:57.458Z,13.68
2019-05-28T01:30:29.776Z,15.68
2019-05-28T01:33:02.719Z,20.02
2019-05-28T01:35:35.097Z,13.32
2019-05-28T01:38:08.602Z,14.28
2019-05-28T01:40:41.258Z,13.93
2019-05-28T01:43:13.752Z,16.15
2019-05-28T01:45:46.159Z,17.10
2019-05-28T01:48:18.743Z,16.60
2019-05-28T01:50:51.514Z,18.82
2019-05-28T01:53:23.822Z,18.17
2019-05-28T01:55:56.379Z,17.57
2019-05-28T01:58:29.023Z,18.52
2019-05-28T02:01:12.219Z,16.30
2019-05-28T02:03:35.808Z,18.27
2019-05-28T02:06:08.522Z,18.80
2019-05-28T02:08:40.805Z,15.25
2019-05-28T02:11:13.025Z,18.98
2019-05-28T02:13:45.769Z,14.47
2019-05-28T02:16:18.112Z,17.75
2019-05-28T02:18:51.929Z,17.15
2019-05-28T02:21:24.392Z,19.87
2019-05-28T02:23:57.980Z,19.67
2019-05-28T02:26:31.078Z,16.97
2019-05-28T02:29:04.119Z,17.75
2019-05-28T02:31:36.679Z,19.67
2019-05-28T02:34:09.569Z,18.70
2019-05-28T02:36:42.096Z,19.30
2019-05-28T02:39:15.084Z,17.32
2019-05-28T02:41:47.990Z,18.37
2019-05-28T02:44:20.350Z,17.40
2019-05-28T02:46:53.021Z,18.17
2019-05-28T02:49:26.291Z,17.87
2019-05-28T02:51:58.965Z,17.07
2019-05-28T02:54:31.686Z,22.67
2019-05-28T02:57:14.395Z,14.93
2019-05-28T02:59:49.843Z,16.00
2019-05-28T03:02:24.949Z,15.35
2019-05-28T03:05:01.305Z,16.73
2019-05-28T03:07:34.908Z,18.45
2019-05-28T03:10:08.307Z,19.70
2019-05-28T03:12:40.839Z,18.27
2019-05-28T03:15:13.923Z,15.65
2019-05-28T03:17:48.065Z,19.00
2019-05-28T03:20:21.741Z,15.00
2019-05-28T03:22:55.356Z,15.65
2019-05-28T03:25:28.203Z,15.88
2019-05-28T03:28:00.616Z,17.73
2019-05-28T03:30:33.283Z,15.68
2019-05-28T03:33:05.765Z,20.00
2019-05-28T03:35:40.567Z,20.85
2019-05-28T03:38:14.555Z,18.85
2019-05-28T03:40:47.904Z,21.25
2019-05-28T03:43:20.171Z,19.23
2019-05-28T03:45:52.833Z,22.30
2019-05-28T03:48:25.113Z,20.00
2019-05-28T03:50:58.824Z,19.02
2019-05-28T03:53:31.161Z,17.62
2019-05-28T03:56:03.611Z,21.65
2019-05-28T03:58:36.058Z,22.40
2019-05-28T04:01:08.765Z,19.77
2019-05-28T04:03:41.167Z,22.48
2019-05-28T04:06:15.080Z,17.55
2019-05-28T04:08:47.488Z,20.48
2019-05-28T04:11:19.964Z,19.98
2019-05-28T04:13:52.190Z,20.23
2019-05-28T04:16:24.716Z,21.23
2019-05-28T04:18:57.148Z,20.60
2019-05-28T04:21:31.415Z,20.65
2019-05-28T04:26:36.800Z,21.85
2019-05-28T04:29:09.966Z,19.35
2019-05-28T04:31:42.744Z,19.60
2019-05-28T04:34:15.120Z,20.32
2019-05-28T04:36:47.638Z,18.77
2019-05-28T04:39:20.378Z,24.47
2019-05-28T04:41:52.770Z,32.42
2019-05-28T04:44:25.308Z,27.10
2019-05-28T04:46:57.786Z,25.68
2019-05-28T04:49:31.372Z,27.52
2019-05-28T04:52:05.496Z,30.70
2019-05-28T04:54:39.127Z,32.40
2019-05-28T04:57:11.484Z,25.00
2019-05-28T04:59:43.874Z,26.37
2019-05-28T05:02:16.183Z,30.95
2019-05-28T05:04:48.704Z,34.33
2019-05-28T05:07:22.882Z,32.33
2019-05-28T05:09:56.183Z,30.85
2019-05-28T05:12:30.763Z,29.65
2019-05-28T05:15:04.396Z,42.85
2019-05-28T05:17:37.045Z,40.60
2019-05-28T05:20:11.895Z,38.50
2019-05-28T05:22:44.615Z,42.25
2019-05-28T05:25:17.444Z,34.45
2019-05-28T05:30:22.738Z,42.30
2019-05-28T05:32:55.540Z,48.35
2019-05-28T05:35:29.269Z,41.35
2019-05-28T05:38:01.925Z,42.85
2019-05-28T05:40:34.476Z,32.60
2019-05-28T05:43:06.880Z,23.52
2019-05-28T05:45:39.403Z,11.80
2019-05-28T05:48:11.923Z,9.13
2019-05-28T05:50:45.376Z,9.05
2019-05-28T05:53:18.673Z,6.50
2019-05-28T05:55:51.069Z,7.72
2019-05-28T05:58:23.414Z,18.10
2019-05-28T06:00:55.767Z,9.43
2019-05-28T06:03:40.410Z,9.03
2019-05-28T06:06:05.568Z,14.30
2019-05-28T06:08:38.139Z,16.80
2019-05-28T06:11:10.677Z,13.60
2019-05-28T06:13:43.506Z,14.55
2019-05-28T06:16:16.116Z,14.53
2019-05-28T06:18:48.997Z,16.30
2019-05-28T06:21:21.511Z,11.65
2019-05-28T06:23:55.150Z,12.82
2019-05-28T06:26:27.774Z,12.58
2019-05-28T06:29:01.468Z,11.20
2019-05-28T06:31:34.091Z,11.65
2019-05-28T06:34:08.729Z,14.30
2019-05-28T06:36:41.016Z,16.25
2019-05-28T06:39:13.724Z,14.33
2019-05-28T06:41:46.213Z,6.03
2019-05-28T06:44:20.689Z,7.62
2019-05-28T06:46:53.357Z,7.22
2019-05-28T06:49:26.864Z,13.08
2019-05-28T06:51:59.405Z,8.95
2019-05-28T06:54:35.845Z,11.43
2019-05-28T06:57:22.293Z,13.18
2019-05-28T06:59:42.551Z,9.75
2019-05-28T07:02:14.876Z,15.88
2019-05-28T07:04:52.728Z,9.18
2019-05-28T07:07:25.236Z,8.98
2019-05-28T07:09:57.550Z,13.48
2019-05-28T07:12:30.109Z,8.43
2019-05-28T07:15:02.514Z,21.70
2019-05-28T07:17:37.074Z,7.65
2019-05-28T07:20:13.816Z,18.73
2019-05-28T07:22:46.197Z,12.63
2019-05-28T07:25:20.382Z,6.72
2019-05-28T07:28:09.790Z,5.95
2019-05-28T07:30:28.097Z,6.67
2019-05-28T07:33:01.954Z,5.00
2019-05-28T07:35:45.917Z,7.22
2019-05-28T07:38:12.994Z,4.33
2019-05-28T07:40:45.290Z,9.10
2019-05-28T07:43:17.639Z,4.87
2019-05-28T07:45:49.722Z,6.70
2019-05-28T07:48:23.522Z,4.60
2019-05-28T07:50:57.058Z,4.25
2019-05-28T07:53:39.612Z,4.85
2019-05-28T07:56:03.937Z,5.78
2019-05-28T07:58:38.586Z,5.47
2019-05-28T08:01:11.336Z,6.60
2019-05-28T08:03:44.621Z,6.97
2019-05-28T08:06:17.104Z,5.05
2019-05-28T08:08:50.795Z,5.15
2019-05-28T08:11:23.699Z,5.85
2019-05-28T08:13:56.896Z,4.90
2019-05-28T08:16:29.264Z,7.08
2019-05-28T08:19:01.664Z,13.45
2019-05-28T08:21:36.371Z,7.60
2019-05-28T08:24:09.530Z,9.73
2019-05-28T08:26:42.950Z,4.40
2019-05-28T08:29:15.075Z,4.47
2019-05-28T08:31:47.729Z,7.28
2019-05-28T08:34:21.916Z,7.87
2019-05-28T08:37:05.877Z,8.25
2019-05-28T08:39:33.694Z,6.25
2019-05-28T08:42:06.850Z,7.72
2019-05-28T08:44:40.191Z,13.03
2019-05-28T08:47:12.579Z,16.62
2019-05-28T08:49:45.016Z,10.15
2019-05-28T08:52:18.553Z,7.97
2019-05-28T08:54:51.998Z,11.60
2019-05-28T08:57:25.829Z,9.85
2019-05-28T08:59:58.107Z,11.80
2019-05-28T09:02:32.508Z,7.95
2019-05-28T09:05:24.695Z,9.70
2019-05-28T09:07:42.644Z,6.92
2019-05-28T09:10:17.033Z,19.85
2019-05-28T09:12:50.386Z,12.53
2019-05-28T09:15:23.236Z,6.87
2019-05-28T09:17:58.000Z,7.95
2019-05-28T09:20:34.284Z,7.50
2019-05-28T09:25:39.665Z,8.63
2019-05-28T09:28:28.417Z,6.92
2019-05-28T09:30:47.815Z,11.68
2019-05-28T09:33:23.780Z,9.10
2019-05-28T09:36:09.026Z,9.18
2019-05-28T09:38:40.701Z,6.10
2019-05-28T09:41:12.938Z,5.95
2019-05-28T09:43:46.066Z,10.72
2019-05-28T09:46:18.749Z,5.28
2019-05-28T09:48:51.561Z,7.20
2019-05-28T09:51:25.781Z,7.53
2019-05-28T09:54:00.707Z,11.90
2019-05-28T09:56:33.412Z,7.28
2019-05-28T09:59:10.273Z,8.63
2019-05-28T10:01:48.260Z,11.18
2019-05-28T10:04:44.055Z,6.22
2019-05-28T10:07:00.285Z,8.43
2019-05-28T10:09:33.298Z,7.70
2019-05-28T10:12:06.796Z,7.90
2019-05-28T10:14:44.160Z,8.70
2019-05-28T10:17:16.043Z,5.78
2019-05-28T10:19:48.549Z,8.90
2019-05-28T10:22:20.795Z,6.97
2019-05-28T10:24:52.925Z,8.78
2019-05-28T10:27:25.363Z,7.45
2019-05-28T10:29:57.593Z,9.05
2019-05-28T10:32:29.805Z,6.05
2019-05-28T10:35:04.185Z,5.87
2019-05-28T10:37:36.053Z,6.85
2019-05-28T10:40:14.897Z,8.13
2019-05-28T10:42:47.127Z,14.25
2019-05-28T10:45:21.939Z,8.70
2019-05-28T10:47:55.607Z,12.60
2019-05-28T10:50:31.539Z,9.13
2019-05-28T10:53:04.076Z,11.50
2019-05-28T10:55:36.391Z,11.03
2019-05-28T10:58:08.638Z,9.05
2019-05-28T11:00:41.869Z,11.85
2019-05-28T11:03:15.944Z,14.55
2019-05-28T11:05:49.234Z,10.63
2019-05-28T11:08:21.839Z,12.93
2019-05-28T11:10:56.202Z,11.60
2019-05-28T11:13:28.480Z,11.65
2019-05-28T11:16:00.957Z,14.20
2019-05-28T11:18:33.327Z,9.58
2019-05-28T11:21:09.560Z,10.35
2019-05-28T11:23:40.871Z,12.05
2019-05-28T11:26:13.346Z,10.13
2019-05-28T11:28:45.547Z,8.00
2019-05-28T11:31:18.904Z,14.85
2019-05-28T11:33:52.106Z,8.60
2019-05-28T11:36:27.403Z,8.38
2019-05-28T11:38:59.596Z,7.33
2019-05-28T11:41:42.043Z,6.75
2019-05-28T11:44:06.871Z,37.05
2019-05-28T11:46:40.725Z,11.33
2019-05-28T11:49:13.312Z,9.05
2019-05-28T11:51:46.022Z,8.28
2019-05-28T11:54:18.768Z,12.10
2019-05-28T11:56:51.179Z,9.60
2019-05-28T11:59:23.344Z,5.65
2019-05-28T12:01:56.590Z,8.18
2019-05-28T12:04:29.711Z,4.70
2019-05-28T12:07:02.150Z,7.37
2019-05-28T12:09:34.456Z,5.97
2019-05-28T12:12:07.657Z,11.12
2019-05-28T12:14:40.165Z,7.85
2019-05-28T12:17:12.914Z,18.70
2019-05-28T12:19:45.709Z,5.53
2019-05-28T12:22:18.168Z,6.33
2019-05-28T12:24:50.487Z,7.85
2019-05-28T12:27:22.831Z,6.10
2019-05-28T12:29:54.964Z,5.60
2019-05-28T12:32:32.955Z,11.00
2019-05-28T12:35:26.387Z,5.28
2019-05-28T12:37:48.886Z,6.97
2019-05-28T12:40:20.695Z,7.00
2019-05-28T12:42:54.823Z,5.50
2019-05-28T12:48:12.570Z,5.30
2019-05-28T12:50:34.830Z,7.60
2019-05-28T12:53:07.518Z,8.15
2019-05-28T12:55:39.724Z,7.08
2019-05-28T12:58:17.097Z,15.10
2019-05-28T13:00:49.517Z,6.55
2019-05-28T13:03:23.600Z,6.80
2019-05-28T13:05:56.034Z,5.37
2019-05-28T13:08:29.262Z,6.95
2019-05-28T13:11:02.918Z,7.17
2019-05-28T13:13:35.402Z,27.13
2019-05-28T13:16:08.457Z,7.05
2019-05-28T13:18:41.811Z,6.53
2019-05-28T13:21:14.778Z,7.67
2019-05-28T13:23:47.013Z,9.03
2019-05-28T13:26:19.511Z,6.72
2019-05-28T13:28:51.968Z,9.45
2019-05-28T13:31:25.405Z,9.30
2019-05-28T13:33:58.986Z,8.60
2019-05-28T13:36:31.316Z,6.08
2019-05-28T13:39:04.105Z,8.75
2019-05-28T13:41:37.807Z,5.60
2019-05-28T13:44:10.283Z,7.25
2019-05-28T13:46:44.840Z,7.67
2019-05-28T13:49:20.923Z,9.30
2019-05-28T13:52:11.060Z,7.30
2019-05-28T13:54:29.394Z,6.83
2019-05-28T13:57:01.740Z,7.12
2019-05-28T13:59:34.929Z,8.78
2019-05-28T14:02:09.617Z,10.23
2019-05-28T14:04:48.551Z,5.72
2019-05-28T14:07:20.892Z,5.25
2019-05-28T14:09:53.647Z,8.18
2019-05-28T14:12:26.011Z,4.65
2019-05-28T14:14:58.748Z,7.83
2019-05-28T14:17:31.128Z,22.73
2019-05-28T14:20:07.880Z,15.18
2019-05-28T14:22:40.863Z,5.08
2019-05-28T14:25:13.861Z,7.03
2019-05-28T14:27:45.969Z,7.53
2019-05-28T14:30:20.493Z,10.72
2019-05-28T14:32:53.300Z,8.23
2019-05-28T14:35:26.490Z,6.85
2019-05-28T14:37:58.914Z,5.00
2019-05-28T14:40:31.527Z,7.08
2019-05-28T14:43:04.157Z,9.47
2019-05-28T14:45:36.363Z,5.92
2019-05-28T14:48:08.685Z,5.17
2019-05-28T14:50:42.415Z,4.40
2019-05-28T14:53:14.661Z,7.17
2019-05-28T14:55:46.871Z,7.60
2019-05-28T14:58:19.077Z,6.58
2019-05-28T15:00:52.255Z,7.70
2019-05-28T15:03:27.478Z,6.40
2019-05-28T15:06:00.914Z,7.55
2019-05-28T15:08:33.190Z,6.15
2019-05-28T15:11:06.016Z,5.90
2019-05-28T15:13:38.379Z,9.80
2019-05-28T15:16:10.956Z,8.23
2019-05-28T15:18:43.482Z,9.08
2019-05-28T15:21:17.974Z,9.38
2019-05-28T15:23:50.303Z,12.03
2019-05-28T15:26:22.981Z,10.43
2019-05-28T15:28:56.446Z,6.67
2019-05-28T15:31:28.759Z,13.25
2019-05-28T15:34:04.118Z,5.78
2019-05-28T15:36:36.365Z,8.60
2019-05-28T15:39:08.727Z,8.40
2019-05-28T15:41:43.049Z,10.25
2019-05-28T15:44:15.451Z,8.00
2019-05-28T15:46:47.743Z,10.38
2019-05-28T15:49:20.063Z,9.68
2019-05-28T15:52:05.179Z,8.73
2019-05-28T15:56:58.570Z,8.93
2019-05-28T15:59:30.830Z,19.05
2019-05-28T16:02:04.440Z,10.98
2019-05-28T16:04:47.755Z,4.70
2019-05-28T16:07:23.422Z,6.37
2019-05-28T16:09:57.082Z,15.85
2019-05-28T16:15:00.950Z,8.40
2019-05-28T16:17:33.100Z,4.97
2019-05-28T16:20:07.163Z,6.75
2019-05-28T16:22:39.438Z,6.78
2019-05-28T16:25:12.118Z,5.67
2019-05-28T16:27:44.407Z,5.05
2019-05-28T16:30:18.277Z,5.22
2019-05-28T16:35:21.810Z,7.70
2019-05-28T16:37:54.055Z,6.45
2019-05-28T16:40:26.573Z,6.70
2019-05-28T16:42:58.988Z,9.83
2019-05-28T16:45:31.179Z,8.43
2019-05-28T16:48:03.516Z,9.25
2019-05-28T16:50:35.677Z,8.63
2019-05-28T16:53:08.232Z,12.15
2019-05-28T16:55:42.118Z,11.15
2019-05-28T16:58:14.529Z,9.88
2019-05-28T17:00:46.857Z,7.55
2019-05-28T17:03:19.225Z,10.23
2019-05-28T17:05:51.484Z,9.60
2019-05-28T17:08:25.763Z,11.95
2019-05-28T17:10:58.041Z,7.90
2019-05-28T17:16:03.375Z,10.08
2019-05-28T17:18:39.448Z,16.70
2019-05-28T17:21:11.928Z,9.55
2019-05-28T17:23:44.668Z,14.78
2019-05-28T17:26:17.053Z,11.00
2019-05-28T17:28:49.785Z,11.80
2019-05-28T17:33:57.241Z,7.50
2019-05-28T17:39:01.695Z,11.38
2019-05-28T17:41:37.900Z,9.93
2019-05-28T17:46:41.810Z,10.65
2019-05-28T17:49:15.110Z,11.50
2019-05-28T17:51:47.892Z,10.68
2019-05-28T17:54:20.738Z,7.85
2019-05-28T17:56:53.002Z,13.88
2019-05-28T17:59:25.884Z,6.40
2019-05-28T18:02:03.423Z,8.55
2019-05-28T18:04:35.957Z,9.43
2019-05-28T18:07:08.397Z,6.00
2019-05-28T18:09:44.475Z,8.43
2019-05-28T18:12:19.327Z,5.85
2019-05-28T18:14:53.444Z,9.95
2019-05-28T18:17:26.460Z,8.30
2019-05-28T18:19:59.446Z,8.48
2019-05-28T18:22:31.789Z,6.12
2019-05-28T18:25:05.634Z,7.15
2019-05-28T18:27:38.080Z,8.60
2019-05-28T18:30:12.133Z,9.00
2019-05-28T18:35:15.821Z,6.37
2019-05-28T18:37:47.987Z,9.23
2019-05-28T18:40:20.563Z,7.53
2019-05-28T18:42:52.867Z,5.00
2019-05-28T18:45:25.326Z,9.43
2019-05-28T18:47:57.785Z,8.28
2019-05-28T18:50:30.064Z,11.65
2019-05-28T18:53:02.670Z,11.12
2019-05-28T18:55:36.476Z,7.95
2019-05-28T18:58:08.856Z,7.80
2019-05-28T19:00:41.555Z,8.40
2019-05-28T19:03:14.308Z,6.60
2019-05-28T19:05:48.016Z,9.53
2019-05-28T19:08:21.558Z,6.03
2019-05-28T19:10:59.890Z,7.62
2019-05-28T19:13:32.354Z,4.75
2019-05-28T19:16:05.725Z,6.83
2019-05-28T19:18:40.044Z,6.35
2019-05-28T19:21:12.391Z,10.30
2019-05-28T19:23:45.104Z,7.87
2019-05-28T19:26:19.052Z,8.00
2019-05-28T19:28:51.432Z,7.47
2019-05-28T19:31:23.707Z,6.83
2019-05-28T19:33:56.608Z,8.80
2019-05-28T19:36:29.457Z,6.53
2019-05-28T19:39:02.711Z,5.05
2019-05-28T19:41:50.418Z,5.50
2019-05-28T19:44:10.598Z,4.25
2019-05-28T19:46:42.852Z,7.97
2019-05-28T19:49:14.996Z,5.17
2019-05-28T19:51:47.210Z,6.65
2019-05-28T19:54:20.084Z,6.15
2019-05-28T19:56:52.873Z,5.78
2019-05-28T19:59:25.113Z,6.90
2019-05-28T20:01:57.395Z,5.17
2019-05-28T20:04:30.187Z,7.03
2019-05-28T20:07:02.484Z,6.62
2019-05-28T20:09:35.037Z,5.22
2019-05-28T20:12:12.797Z,6.03
2019-05-28T20:14:43.078Z,9.05
2019-05-28T20:17:16.770Z,4.45
2019-05-28T20:19:51.352Z,7.53
2019-05-28T20:22:23.304Z,8.08
2019-05-28T20:24:59.123Z,8.43
2019-05-28T20:27:33.432Z,6.97
2019-05-28T20:30:11.483Z,9.28
2019-05-28T20:32:43.715Z,6.35
2019-05-28T20:35:16.135Z,6.53
2019-05-28T20:37:48.328Z,6.40
2019-05-28T20:40:20.952Z,7.17
2019-05-28T20:42:54.347Z,7.45
2019-05-28T20:45:27.828Z,6.08
2019-05-28T20:48:00.511Z,10.08
2019-05-28T20:50:33.021Z,7.80
2019-05-28T20:53:06.618Z,5.90
2019-05-28T20:55:38.986Z,5.12
2019-05-28T20:58:11.278Z,6.22
2019-05-28T21:00:43.754Z,4.33
2019-05-28T21:03:16.297Z,6.78
2019-05-28T21:05:48.666Z,6.72
2019-05-28T21:08:20.953Z,5.20
2019-05-28T21:10:53.210Z,4.80
2019-05-28T21:13:27.970Z,7.92
2019-05-28T21:16:00.146Z,9.90
2019-05-28T21:18:32.363Z,10.65
2019-05-28T21:21:04.689Z,6.67
2019-05-28T21:23:36.950Z,7.03
2019-05-28T21:26:09.313Z,5.70
2019-05-28T21:28:41.478Z,5.83
2019-05-28T21:31:13.839Z,6.03
2019-05-28T21:33:46.138Z,5.67
2019-05-28T21:36:18.688Z,6.72
2019-05-28T21:38:51.186Z,7.25
2019-05-28T21:41:23.426Z,5.78
2019-05-28T21:43:55.917Z,6.12
2019-05-28T21:46:28.493Z,7.05
2019-05-28T21:49:00.926Z,9.58
2019-05-28T21:51:33.042Z,7.87
2019-05-28T21:54:05.258Z,6.40
2019-05-28T21:56:37.572Z,5.45
2019-05-28T21:59:13.514Z,6.53
2019-05-28T22:01:47.030Z,9.00
2019-05-28T22:04:19.314Z,8.83
2019-05-28T22:06:51.481Z,9.05
2019-05-28T22:09:23.867Z,10.95
2019-05-28T22:11:57.700Z,11.83
2019-05-28T22:14:32.040Z,11.43
2019-05-28T22:17:05.490Z,7.55
2019-05-28T22:19:39.078Z,10.38
2019-05-28T22:22:11.553Z,11.08
2019-05-28T22:24:44.214Z,8.48
2019-05-28T22:27:16.572Z,7.53
2019-05-28T22:29:48.976Z,10.32
2019-05-28T22:32:21.310Z,7.03
2019-05-28T22:34:53.506Z,11.63
2019-05-28T22:37:25.930Z,10.40
2019-05-28T22:39:59.340Z,13.10
2019-05-28T22:42:32.756Z,9.73
2019-05-28T22:45:07.517Z,8.53
2019-05-28T22:47:39.750Z,9.18
2019-05-28T22:50:21.876Z,11.70
2019-05-28T22:52:47.263Z,12.73
2019-05-28T22:55:19.841Z,11.33
2019-05-28T22:57:52.373Z,10.72
2019-05-28T23:00:27.390Z,8.60
2019-05-28T23:03:00.834Z,10.78
2019-05-28T23:05:33.475Z,12.03
2019-05-28T23:08:06.209Z,10.55
2019-05-28T23:10:38.537Z,8.53
2019-05-28T23:13:11.243Z,12.13
2019-05-28T23:15:44.714Z,9.28
2019-05-28T23:18:17.086Z,10.03
2019-05-28T23:20:50.278Z,7.20
2019-05-28T23:23:22.608Z,8.15
2019-05-28T23:25:54.842Z,7.05
2019-05-28T23:28:27.123Z,9.55
2019-05-28T23:30:59.668Z,10.80
2019-05-28T23:33:32.076Z,10.18
2019-05-28T23:36:04.732Z,9.75
2019-05-28T23:38:36.823Z,8.00
2019-05-28T23:41:09.451Z,6.78
2019-05-28T23:43:41.793Z,10.58
2019-05-28T23:46:14.422Z,9.55
2019-05-28T23:48:50.275Z,7.55
2019-05-28T23:51:22.387Z,9.38
2019-05-28T23:53:54.475Z,11.30
2019-05-28T23:56:27.017Z,8.70
2019-05-28T23:58:59.565Z,6.92
